createdAt,value
2019-05-13T00:01:06.801Z,7.70
2019-05-13T00:03:34.287Z,7.70
2019-05-13T00:06:04.255Z,6.70
2019-05-13T00:08:33.995Z,7.70
2019-05-13T00:11:04.375Z,7.70
2019-05-13T00:13:33.997Z,7.70
2019-05-13T00:16:03.851Z,7.70
2019-05-13T00:18:34.042Z,7.70
2019-05-13T00:21:03.937Z,7.70
2019-05-13T00:23:33.971Z,7.70
2019-05-13T00:26:03.976Z,7.70
2019-05-13T00:28:34.199Z,7.70
2019-05-13T00:31:04.074Z,7.70
2019-05-13T00:33:34.086Z,7.70
2019-05-13T00:36:04.172Z,7.60
2019-05-13T00:38:33.910Z,7.60
2019-05-13T00:41:03.814Z,7.60
2019-05-13T00:43:33.949Z,7.60
2019-05-13T00:46:04.021Z,7.60
2019-05-13T00:48:33.738Z,7.60
2019-05-13T00:51:03.903Z,7.50
2019-05-13T00:53:35.286Z,7.60
2019-05-13T00:56:05.048Z,7.60
2019-05-13T00:58:35.399Z,7.50
2019-05-13T01:01:04.882Z,7.50
2019-05-13T01:03:35.312Z,7.50
2019-05-13T01:06:04.904Z,7.50
2019-05-13T01:08:34.325Z,7.50
2019-05-13T01:11:04.394Z,7.50
2019-05-13T01:13:34.859Z,7.50
2019-05-13T01:16:04.382Z,7.50
2019-05-13T01:18:34.189Z,7.50
2019-05-13T01:21:04.557Z,7.50
2019-05-13T01:23:34.994Z,7.50
2019-05-13T01:26:04.525Z,7.50
2019-05-13T01:28:34.557Z,7.50
2019-05-13T01:31:04.381Z,7.50
2019-05-13T01:33:35.113Z,7.40
2019-05-13T01:36:05.456Z,7.50
2019-05-13T01:38:35.826Z,7.50
2019-05-13T01:41:05.370Z,7.50
2019-05-13T01:43:54.481Z,7.50
2019-05-13T01:46:24.217Z,7.40
2019-05-13T01:48:54.359Z,7.40
2019-05-13T01:51:24.078Z,7.40
2019-05-13T01:53:54.458Z,7.30
2019-05-13T01:56:23.863Z,7.30
2019-05-13T01:58:54.145Z,7.30
2019-05-13T02:01:24.163Z,7.30
2019-05-13T02:03:54.554Z,7.30
2019-05-13T02:06:24.148Z,7.30
2019-05-13T02:08:54.527Z,7.40
2019-05-13T02:11:24.184Z,7.40
2019-05-13T02:13:54.129Z,7.40
2019-05-13T02:16:24.370Z,7.40
2019-05-13T02:18:53.999Z,7.40
2019-05-13T02:21:24.098Z,7.30
2019-05-13T02:23:53.829Z,7.30
2019-05-13T02:26:24.068Z,7.30
2019-05-13T02:28:54.090Z,7.30
2019-05-13T02:31:39.049Z,7.30
2019-05-13T02:33:54.879Z,7.30
2019-05-13T02:36:24.354Z,7.20
2019-05-13T02:38:53.861Z,7.20
2019-05-13T02:41:23.292Z,7.20
2019-05-13T02:43:52.836Z,7.20
2019-05-13T02:46:22.698Z,7.20
2019-05-13T02:48:52.929Z,7.30
2019-05-13T02:51:23.164Z,7.30
2019-05-13T02:53:52.720Z,7.30
2019-05-13T02:56:22.760Z,7.40
2019-05-13T02:58:53.175Z,7.30
2019-05-13T03:01:22.651Z,7.30
2019-05-13T03:03:52.960Z,7.30
2019-05-13T03:06:22.568Z,7.30
2019-05-13T03:08:54.331Z,7.20
2019-05-13T03:11:23.209Z,7.20
2019-05-13T03:13:53.242Z,7.20
2019-05-13T03:16:27.216Z,7.20
2019-05-13T03:18:56.783Z,7.20
2019-05-13T03:21:26.255Z,7.20
2019-05-13T03:23:55.763Z,7.20
2019-05-13T03:26:25.308Z,7.20
2019-05-13T03:28:54.818Z,7.20
2019-05-13T03:31:26.223Z,7.20
2019-05-13T03:33:56.548Z,7.30
2019-05-13T03:36:26.852Z,7.30
2019-05-13T03:39:05.579Z,7.30
2019-05-13T03:41:27.771Z,7.30
2019-05-13T03:43:57.193Z,7.30
2019-05-13T03:46:26.728Z,7.30
2019-05-13T03:48:56.226Z,7.30
2019-05-13T03:51:25.715Z,7.30
2019-05-13T03:53:55.213Z,7.40
2019-05-13T03:56:24.751Z,7.40
2019-05-13T03:58:54.334Z,7.40
2019-05-13T04:01:23.862Z,7.50
2019-05-13T04:03:53.692Z,7.50
2019-05-13T04:06:23.856Z,7.50
2019-05-13T04:08:54.161Z,7.60
2019-05-13T04:11:24.173Z,7.60
2019-05-13T04:13:53.676Z,7.60
2019-05-13T04:16:23.986Z,7.60
2019-05-13T04:18:54.037Z,7.60
2019-05-13T04:21:23.849Z,7.60
2019-05-13T04:23:53.518Z,7.60
2019-05-13T04:26:23.844Z,7.60
2019-05-13T04:28:53.695Z,7.70
2019-05-13T04:31:23.247Z,7.80
2019-05-13T04:33:53.300Z,7.90
2019-05-13T04:36:23.851Z,7.90
2019-05-13T04:38:53.495Z,7.90
2019-05-13T04:41:23.365Z,7.90
2019-05-13T04:43:53.891Z,8.00
2019-05-13T04:46:23.751Z,8.00
2019-05-13T04:48:53.465Z,8.10
2019-05-13T04:51:23.158Z,8.10
2019-05-13T04:53:56.838Z,8.10
2019-05-13T04:56:23.767Z,8.20
2019-05-13T04:58:54.073Z,8.20
2019-05-13T05:01:26.818Z,8.30
2019-05-13T05:04:11.692Z,8.30
2019-05-13T05:06:45.694Z,8.40
2019-05-13T05:09:32.997Z,8.40
2019-05-13T05:12:24.711Z,8.40
2019-05-13T05:15:32.375Z,8.50
2019-05-13T05:18:25.895Z,8.60
2019-05-13T05:21:11.946Z,8.50
2019-05-13T05:24:17.990Z,8.60
2019-05-13T05:27:05.611Z,8.60
2019-05-13T05:29:51.662Z,8.70
2019-05-13T05:32:44.117Z,8.60
2019-05-13T05:35:33.507Z,8.70
2019-05-13T05:38:18.373Z,8.80
2019-05-13T05:40:48.362Z,8.90
2019-05-13T05:43:17.797Z,8.90
2019-05-13T05:45:47.256Z,9.10
2019-05-13T05:48:17.352Z,9.20
2019-05-13T05:50:47.673Z,9.30
2019-05-13T05:53:17.227Z,9.30
2019-05-13T05:55:46.860Z,9.40
2019-05-13T05:58:16.326Z,9.50
2019-05-13T06:00:45.812Z,9.60
2019-05-13T06:03:16.148Z,9.60
2019-05-13T06:05:45.646Z,9.70
2019-05-13T06:08:17.828Z,9.70
2019-05-13T06:10:50.308Z,9.80
2019-05-13T06:13:17.501Z,9.90
2019-05-13T06:15:46.885Z,9.90
2019-05-13T06:18:17.443Z,9.80
2019-05-13T06:20:46.925Z,10.00
2019-05-13T06:23:16.387Z,10.10
2019-05-13T06:25:45.849Z,10.30
2019-05-13T06:28:15.393Z,10.40
2019-05-13T06:30:44.903Z,10.40
2019-05-13T06:33:14.473Z,10.30
2019-05-13T06:35:44.875Z,10.30
2019-05-13T06:38:14.663Z,10.40
2019-05-13T06:40:59.043Z,10.40
2019-05-13T06:43:15.229Z,10.40
2019-05-13T06:45:44.665Z,10.20
2019-05-13T06:48:15.005Z,10.10
2019-05-13T06:50:44.461Z,10.20
2019-05-13T06:53:13.989Z,10.20
2019-05-13T06:55:43.489Z,10.30
2019-05-13T06:58:12.958Z,10.40
2019-05-13T07:00:43.051Z,10.50
2019-05-13T07:03:13.034Z,10.40
2019-05-13T07:05:42.774Z,10.50
2019-05-13T07:08:12.292Z,10.60
2019-05-13T07:10:41.913Z,10.70
2019-05-13T07:13:11.642Z,10.80
2019-05-13T07:15:41.738Z,10.90
2019-05-13T07:18:11.933Z,10.80
2019-05-13T07:20:42.712Z,10.90
2019-05-13T07:23:12.566Z,11.10
2019-05-13T07:25:43.035Z,11.20
2019-05-13T07:28:12.870Z,11.30
2019-05-13T07:30:45.185Z,11.40
2019-05-13T07:33:14.663Z,11.60
2019-05-13T07:35:45.828Z,11.70
2019-05-13T07:38:15.587Z,11.50
2019-05-13T07:40:45.115Z,11.50
2019-05-13T07:43:14.846Z,11.30
2019-05-13T07:45:44.349Z,11.40
2019-05-13T07:48:21.058Z,11.40
2019-05-13T07:50:59.037Z,11.40
2019-05-13T07:53:18.893Z,11.60
2019-05-13T07:55:47.258Z,11.80
2019-05-13T07:58:16.901Z,12.10
2019-05-13T08:00:46.430Z,12.30
2019-05-13T08:03:15.957Z,12.20
2019-05-13T08:05:45.496Z,12.30
2019-05-13T08:08:14.965Z,12.40
2019-05-13T08:10:44.452Z,12.30
2019-05-13T08:13:13.876Z,12.30
2019-05-13T08:15:43.372Z,12.00
2019-05-13T08:18:12.896Z,12.10
2019-05-13T08:20:42.425Z,12.10
2019-05-13T08:23:12.262Z,12.00
2019-05-13T08:25:42.547Z,11.80
2019-05-13T08:28:13.100Z,11.80
2019-05-13T08:30:43.038Z,11.90
2019-05-13T08:33:12.959Z,12.00
2019-05-13T08:35:47.050Z,12.10
2019-05-13T08:38:13.564Z,12.20
2019-05-13T08:40:43.076Z,12.20
2019-05-13T08:43:12.974Z,12.10
2019-05-13T08:45:43.061Z,12.00
2019-05-13T08:48:13.044Z,11.90
2019-05-13T08:50:42.737Z,12.10
2019-05-13T08:53:13.091Z,12.40
2019-05-13T08:55:43.096Z,12.60
2019-05-13T08:58:12.868Z,12.80
2019-05-13T09:00:47.866Z,12.60
2019-05-13T09:03:17.875Z,12.50
2019-05-13T09:05:47.400Z,12.40
2019-05-13T09:08:17.084Z,12.60
2019-05-13T09:10:48.570Z,12.60
2019-05-13T09:13:18.050Z,12.70
2019-05-13T09:15:47.418Z,12.80
2019-05-13T09:18:16.790Z,13.10
2019-05-13T09:20:46.338Z,13.20
2019-05-13T09:23:15.806Z,13.30
2019-05-13T09:25:45.172Z,13.10
2019-05-13T09:28:14.698Z,12.70
2019-05-13T09:30:44.265Z,12.80
2019-05-13T09:33:13.792Z,12.80
2019-05-13T09:35:43.218Z,12.40
2019-05-13T09:38:12.901Z,12.30
2019-05-13T09:40:42.478Z,12.20
2019-05-13T09:43:11.906Z,12.10
2019-05-13T09:45:41.957Z,12.10
2019-05-13T09:48:12.940Z,12.40
2019-05-13T09:50:42.652Z,12.70
2019-05-13T09:53:12.210Z,12.70
2019-05-13T09:55:41.765Z,12.80
2019-05-13T09:58:11.961Z,12.60
2019-05-13T10:00:42.195Z,12.60
2019-05-13T10:03:13.869Z,12.70
2019-05-13T10:05:43.309Z,12.70
2019-05-13T10:08:12.843Z,12.90
2019-05-13T10:10:42.523Z,13.00
2019-05-13T10:13:15.320Z,13.00
2019-05-13T10:15:43.203Z,13.00
2019-05-13T10:18:12.847Z,13.00
2019-05-13T10:21:00.340Z,12.90
2019-05-13T10:23:32.516Z,12.80
2019-05-13T10:26:03.941Z,12.80
2019-05-13T10:28:33.570Z,12.70
2019-05-13T10:31:03.041Z,12.50
2019-05-13T10:33:32.580Z,12.50
2019-05-13T10:36:03.340Z,12.50
2019-05-13T10:38:33.410Z,12.60
2019-05-13T10:41:03.721Z,12.80
2019-05-13T10:43:39.048Z,12.90
2019-05-13T10:46:04.802Z,12.80
2019-05-13T10:48:34.356Z,13.00
2019-05-13T10:51:04.063Z,13.00
2019-05-13T10:53:33.583Z,13.30
2019-05-13T10:56:03.668Z,13.40
2019-05-13T10:58:33.256Z,13.60
2019-05-13T11:01:03.269Z,13.70
2019-05-13T11:03:33.284Z,13.70
2019-05-13T11:06:03.146Z,13.70
2019-05-13T11:08:33.384Z,13.70
2019-05-13T11:11:03.105Z,13.60
2019-05-13T11:13:50.419Z,13.50
2019-05-13T11:16:03.809Z,13.50
2019-05-13T11:18:33.354Z,13.60
2019-05-13T11:21:03.039Z,13.80
2019-05-13T11:23:32.566Z,13.90
2019-05-13T11:26:03.188Z,13.90
2019-05-13T11:28:33.382Z,13.80
2019-05-13T11:31:03.546Z,13.70
2019-05-13T11:33:33.433Z,13.80
2019-05-13T11:36:03.668Z,14.00
2019-05-13T11:38:33.338Z,14.20
2019-05-13T11:41:03.322Z,14.20
2019-05-13T11:43:34.444Z,14.20
2019-05-13T11:46:03.924Z,14.50
2019-05-13T11:48:33.402Z,14.70
2019-05-13T11:51:04.072Z,14.60
2019-05-13T11:53:37.461Z,14.30
2019-05-13T11:56:05.199Z,14.10
2019-05-13T11:58:34.732Z,13.90
2019-05-13T12:01:05.011Z,13.80
2019-05-13T12:03:34.544Z,13.50
2019-05-13T12:06:03.985Z,13.50
2019-05-13T12:08:34.289Z,13.40
2019-05-13T12:11:04.741Z,13.40
2019-05-13T12:13:35.095Z,13.40
2019-05-13T12:16:04.563Z,13.30
2019-05-13T12:18:34.096Z,13.40
2019-05-13T12:21:04.312Z,13.30
2019-05-13T12:23:33.938Z,13.50
2019-05-13T12:26:04.903Z,14.00
2019-05-13T12:28:34.599Z,14.80
2019-05-13T12:31:04.075Z,15.50
2019-05-13T12:33:33.576Z,16.00
2019-05-13T12:36:03.074Z,16.00
2019-05-13T12:38:33.344Z,15.70
2019-05-13T12:41:05.096Z,15.50
2019-05-13T12:43:34.117Z,15.10
2019-05-13T12:46:03.615Z,15.10
2019-05-13T12:48:33.145Z,15.00
2019-05-13T12:51:03.307Z,15.10
2019-05-13T12:53:32.931Z,15.20
2019-05-13T12:56:03.534Z,15.00
2019-05-13T12:58:34.271Z,14.70
2019-05-13T13:01:03.917Z,14.60
2019-05-13T13:03:33.476Z,14.50
2019-05-13T13:06:25.692Z,14.50
2019-05-13T13:08:43.783Z,14.20
2019-05-13T13:11:05.603Z,14.10
2019-05-13T13:13:57.385Z,13.90
2019-05-13T13:16:06.358Z,14.00
2019-05-13T13:18:36.171Z,14.10
2019-05-13T13:21:07.854Z,14.20
2019-05-13T13:23:36.880Z,14.30
2019-05-13T13:26:13.921Z,14.60
2019-05-13T13:28:37.562Z,14.80
2019-05-13T13:31:07.098Z,14.90
2019-05-13T13:33:36.660Z,13.50
2019-05-13T13:36:06.307Z,14.90
2019-05-13T13:38:36.167Z,14.90
2019-05-13T13:41:05.606Z,15.50
2019-05-13T13:43:37.001Z,16.10
2019-05-13T13:46:17.146Z,16.60
2019-05-13T13:48:37.437Z,16.70
2019-05-13T13:51:06.971Z,16.60
2019-05-13T13:53:36.529Z,16.50
2019-05-13T13:56:06.027Z,16.30
2019-05-13T13:58:35.578Z,16.10
2019-05-13T14:01:12.129Z,16.10
2019-05-13T14:03:36.351Z,16.20
2019-05-13T14:06:06.691Z,16.70
2019-05-13T14:08:36.291Z,17.40
2019-05-13T14:11:05.691Z,17.70
2019-05-13T14:13:35.155Z,18.10
2019-05-13T14:16:04.551Z,18.10
2019-05-13T14:18:34.083Z,17.80
2019-05-13T14:21:03.597Z,17.40
2019-05-13T14:23:33.111Z,17.40
2019-05-13T14:26:02.604Z,17.10
2019-05-13T14:28:34.390Z,17.30
2019-05-13T14:31:03.219Z,18.00
2019-05-13T14:33:35.583Z,18.80
2019-05-13T14:36:03.903Z,19.70
2019-05-13T14:38:33.757Z,19.90
2019-05-13T14:41:03.662Z,19.50
2019-05-13T14:43:33.220Z,19.20
2019-05-13T14:46:02.764Z,18.70
2019-05-13T14:48:33.182Z,18.30
2019-05-13T14:51:03.026Z,18.40
2019-05-13T14:53:32.666Z,18.80
2019-05-13T14:56:02.928Z,19.10
2019-05-13T14:58:33.015Z,19.40
2019-05-13T15:01:15.681Z,19.30
2019-05-13T15:03:33.798Z,18.90
2019-05-13T15:06:03.546Z,19.20
2019-05-13T15:08:33.258Z,19.50
2019-05-13T15:11:02.683Z,19.70
2019-05-13T15:13:32.369Z,19.30
2019-05-13T15:16:01.938Z,18.50
2019-05-13T15:18:33.065Z,18.50
2019-05-13T15:21:02.828Z,18.20
2019-05-13T15:23:32.331Z,18.10
2019-05-13T15:26:02.439Z,17.90
2019-05-13T15:28:32.113Z,17.90
2019-05-13T15:31:01.627Z,17.90
2019-05-13T15:33:32.678Z,17.70
2019-05-13T15:36:02.526Z,17.60
2019-05-13T15:38:32.345Z,17.40
2019-05-13T15:41:02.173Z,17.20
2019-05-13T15:43:32.153Z,17.10
2019-05-13T15:46:02.021Z,17.00
2019-05-13T15:48:31.832Z,16.80
2019-05-13T15:51:03.105Z,16.80
2019-05-13T15:53:32.595Z,16.80
2019-05-13T15:56:02.808Z,16.50
2019-05-13T15:58:39.207Z,16.50
2019-05-13T16:01:03.568Z,16.20
2019-05-13T16:03:33.091Z,16.10
2019-05-13T16:06:02.755Z,16.00
2019-05-13T16:08:32.262Z,15.80
2019-05-13T16:11:02.407Z,15.70
2019-05-13T16:13:32.082Z,15.40
2019-05-13T16:16:01.907Z,15.20
2019-05-13T16:18:31.895Z,15.00
2019-05-13T16:21:01.870Z,15.10
2019-05-13T16:23:32.344Z,15.00
2019-05-13T16:26:02.169Z,15.10
2019-05-13T16:28:32.386Z,15.30
2019-05-13T16:31:02.614Z,15.30
2019-05-13T16:33:32.169Z,15.20
2019-05-13T16:36:02.792Z,15.30
2019-05-13T16:38:33.089Z,15.10
2019-05-13T16:41:03.552Z,15.00
2019-05-13T16:43:33.300Z,15.10
2019-05-13T16:46:02.736Z,15.00
2019-05-13T16:48:32.505Z,14.90
2019-05-13T16:51:02.079Z,14.70
2019-05-13T16:53:31.806Z,14.80
2019-05-13T16:56:01.973Z,14.70
2019-05-13T16:58:32.388Z,14.60
2019-05-13T17:01:02.565Z,14.60
2019-05-13T17:03:32.335Z,14.50
2019-05-13T17:06:02.307Z,14.40
2019-05-13T17:08:32.188Z,14.30
2019-05-13T17:11:02.303Z,14.40
2019-05-13T17:13:31.920Z,14.70
2019-05-13T17:16:01.716Z,14.80
2019-05-13T17:18:32.428Z,15.00
2019-05-13T17:21:02.099Z,15.00
2019-05-13T17:23:31.676Z,14.80
2019-05-13T17:26:02.577Z,14.70
2019-05-13T17:28:34.240Z,14.60
2019-05-13T17:31:03.365Z,14.50
2019-05-13T17:33:32.916Z,14.40
2019-05-13T17:36:02.348Z,14.30
2019-05-13T17:38:32.340Z,14.10
2019-05-13T17:41:02.536Z,14.00
2019-05-13T17:43:32.375Z,13.90
2019-05-13T17:46:02.219Z,13.80
2019-05-13T17:48:33.199Z,13.80
2019-05-13T17:51:04.127Z,13.70
2019-05-13T17:53:33.668Z,13.60
2019-05-13T17:56:03.189Z,13.60
2019-05-13T17:58:32.668Z,13.50
2019-05-13T18:01:02.459Z,13.40
2019-05-13T18:03:32.304Z,13.40
2019-05-13T18:06:02.400Z,13.30
2019-05-13T18:08:32.335Z,13.30
2019-05-13T18:11:02.573Z,13.30
2019-05-13T18:13:32.354Z,13.20
2019-05-13T18:16:02.656Z,13.20
2019-05-13T18:18:42.996Z,13.20
2019-05-13T18:21:03.348Z,13.20
2019-05-13T18:23:32.884Z,13.10
2019-05-13T18:26:02.362Z,13.10
2019-05-13T18:28:31.874Z,13.10
2019-05-13T18:31:01.912Z,13.00
2019-05-13T18:33:32.168Z,13.00
2019-05-13T18:36:02.156Z,12.90
2019-05-13T18:38:31.824Z,12.90
2019-05-13T18:41:01.862Z,12.90
2019-05-13T18:43:32.122Z,12.90
2019-05-13T18:46:02.246Z,12.80
2019-05-13T18:48:32.277Z,12.70
2019-05-13T18:51:02.068Z,12.70
2019-05-13T18:53:32.216Z,12.60
2019-05-13T18:56:02.176Z,12.60
2019-05-13T18:58:31.876Z,12.50
2019-05-13T19:01:01.612Z,12.40
2019-05-13T19:03:32.239Z,12.40
2019-05-13T19:06:01.880Z,12.40
2019-05-13T19:08:32.141Z,12.30
2019-05-13T19:11:01.817Z,12.30
2019-05-13T19:13:32.398Z,12.20
2019-05-13T19:16:02.467Z,12.20
2019-05-13T19:18:32.264Z,12.10
2019-05-13T19:21:02.039Z,12.10
2019-05-13T19:23:31.713Z,12.00
2019-05-13T19:26:01.872Z,12.00
2019-05-13T19:28:31.882Z,12.00
2019-05-13T19:31:02.191Z,12.00
2019-05-13T19:33:31.886Z,12.00
2019-05-13T19:36:04.665Z,11.90
2019-05-13T19:38:34.146Z,11.90
2019-05-13T19:41:03.712Z,11.90
2019-05-13T19:43:33.197Z,11.90
2019-05-13T19:46:02.732Z,11.80
2019-05-13T19:48:32.780Z,11.80
2019-05-13T19:51:02.621Z,11.70
2019-05-13T19:53:32.264Z,11.70
2019-05-13T19:56:01.882Z,11.70
2019-05-13T19:58:32.350Z,11.60
2019-05-13T20:01:03.766Z,11.60
2019-05-13T20:03:33.761Z,11.60
2019-05-13T20:06:03.325Z,11.50
2019-05-13T20:08:32.867Z,11.40
2019-05-13T20:11:02.408Z,11.40
2019-05-13T20:13:33.559Z,11.40
2019-05-13T20:16:03.077Z,11.40
2019-05-13T20:18:32.596Z,11.30
2019-05-13T20:21:02.247Z,11.20
2019-05-13T20:23:32.175Z,11.20
2019-05-13T20:26:04.533Z,11.20
2019-05-13T20:28:34.083Z,11.20
2019-05-13T20:31:03.678Z,11.10
2019-05-13T20:33:37.818Z,11.10
2019-05-13T20:36:04.348Z,11.10
2019-05-13T20:38:33.898Z,11.00
2019-05-13T20:41:03.547Z,11.00
2019-05-13T20:43:33.216Z,10.90
2019-05-13T20:46:03.157Z,10.90
2019-05-13T20:48:32.704Z,10.90
2019-05-13T20:51:02.719Z,10.90
2019-05-13T20:53:32.200Z,10.90
2019-05-13T20:56:02.073Z,10.90
2019-05-13T20:58:32.060Z,10.90
2019-05-13T21:01:02.355Z,10.90
2019-05-13T21:03:32.141Z,10.90
2019-05-13T21:06:01.816Z,10.90
2019-05-13T21:08:32.176Z,10.80
2019-05-13T21:11:02.408Z,10.90
2019-05-13T21:13:32.097Z,10.90
2019-05-13T21:16:02.461Z,11.00
2019-05-13T21:18:32.151Z,11.00
2019-05-13T21:21:01.802Z,11.00
2019-05-13T21:23:31.491Z,10.90
2019-05-13T21:26:03.699Z,10.90
2019-05-13T21:28:33.245Z,10.80
2019-05-13T21:31:02.790Z,10.80
2019-05-13T21:33:32.587Z,10.80
2019-05-13T21:36:02.086Z,10.80
2019-05-13T21:38:32.437Z,10.70
2019-05-13T21:41:02.160Z,10.70
2019-05-13T21:43:32.426Z,10.60
2019-05-13T21:46:02.328Z,10.50
2019-05-13T21:48:32.628Z,10.50
2019-05-13T21:51:02.200Z,10.40
2019-05-13T21:53:32.584Z,10.30
2019-05-13T21:56:02.633Z,10.30
2019-05-13T21:58:32.135Z,10.20
2019-05-13T22:01:02.057Z,10.10
2019-05-13T22:03:33.514Z,10.10
2019-05-13T22:06:02.800Z,10.10
2019-05-13T22:08:32.416Z,10.00
2019-05-13T22:11:02.033Z,10.00
2019-05-13T22:13:31.808Z,9.90
2019-05-13T22:16:01.855Z,9.90
2019-05-13T22:18:31.739Z,9.80
2019-05-13T22:21:01.600Z,9.70
2019-05-13T22:23:32.168Z,9.60
2019-05-13T22:26:02.013Z,9.60
2019-05-13T22:28:31.659Z,9.60
2019-05-13T22:31:01.570Z,9.50
2019-05-13T22:33:32.442Z,9.50
2019-05-13T22:36:02.642Z,9.40
2019-05-13T22:38:32.629Z,9.40
2019-05-13T22:41:02.337Z,9.40
2019-05-13T22:43:32.277Z,9.40
2019-05-13T22:46:01.889Z,9.30
2019-05-13T22:48:31.858Z,9.30
2019-05-13T22:51:01.649Z,9.20
2019-05-13T22:53:31.896Z,9.20
2019-05-13T22:56:01.604Z,9.20
2019-05-13T22:58:32.129Z,9.10
2019-05-13T23:01:02.664Z,9.00
2019-05-13T23:03:32.677Z,9.00
2019-05-13T23:06:02.239Z,8.90
2019-05-13T23:08:32.418Z,8.90
2019-05-13T23:11:02.294Z,8.90
2019-05-13T23:13:31.923Z,8.80
2019-05-13T23:16:02.374Z,8.80
2019-05-13T23:18:32.176Z,8.70
2019-05-13T23:21:02.340Z,8.60
2019-05-13T23:23:32.053Z,8.60
2019-05-13T23:26:01.492Z,8.50
2019-05-13T23:28:32.313Z,8.50
2019-05-13T23:31:01.990Z,8.50
2019-05-13T23:33:32.047Z,8.40
2019-05-13T23:36:01.765Z,8.40
2019-05-13T23:38:31.977Z,8.40
2019-05-13T23:41:02.156Z,8.40
2019-05-13T23:43:31.706Z,8.40
2019-05-13T23:46:01.419Z,8.30
2019-05-13T23:48:32.106Z,8.30
2019-05-13T23:51:02.010Z,8.30
2019-05-13T23:53:31.684Z,8.20
2019-05-13T23:56:01.897Z,8.20
2019-05-13T23:58:32.118Z,8.10
